sensor_id;sensor_type;location;lat;lon;timestamp;pressure;altitude;pressure_sealevel;temperature;humidity
9525;BME280;15940;48.734;9.112;2023-03-13T00:01:48;96116.44;;;4.78;85.22
9525;BME280;15940;48.734;9.112;2023-03-13T00:04:15;96108.66;;;4.80;85.09
9525;BME280;15940;48.734;9.112;2023-03-13T00:06:42;96111.47;;;4.85;85.36
9525;BME280;15940;48.734;9.112;2023-03-13T00:09:12;96107.56;;;4.86;85.25
9525;BME280;15940;48.734;9.112;2023-03-13T00:11:39;96102.03;;;4.90;85.14
9525;BME280;15940;48.734;9.112;2023-03-13T00:14:07;96095.63;;;4.87;85.25
9525;BME280;15940;48.734;9.112;2023-03-13T00:16:34;96096.78;;;4.96;85.24
9525;BME280;15940;48.734;9.112;2023-03-13T00:19:04;96097.97;;;4.95;84.86
9525;BME280;15940;48.734;9.112;2023-03-13T00:21:31;96100.34;;;4.93;84.77
9525;BME280;15940;48.734;9.112;2023-03-13T00:23:59;96100.19;;;4.96;84.92
9525;BME280;15940;48.734;9.112;2023-03-13T00:26:28;96102.69;;;5.00;84.90
9525;BME280;15940;48.734;9.112;2023-03-13T00:28:55;96108.78;;;5.00;85.05
9525;BME280;15940;48.734;9.112;2023-03-13T00:31:24;96108.78;;;5.00;84.85
9525;BME280;15940;48.734;9.112;2023-03-13T00:33:55;96108.34;;;5.02;85.11
9525;BME280;15940;48.734;9.112;2023-03-13T00:36:27;96101.31;;;5.04;85.22
9525;BME280;15940;48.734;9.112;2023-03-13T00:38:55;96095.50;;;5.06;85.36
9525;BME280;15940;48.734;9.112;2023-03-13T00:41:24;96096.69;;;5.05;85.21
9525;BME280;15940;48.734;9.112;2023-03-13T00:43:52;96096.41;;;5.03;84.91
9525;BME280;15940;48.734;9.112;2023-03-13T00:46:22;96094.00;;;5.05;85.14
9525;BME280;15940;48.734;9.112;2023-03-13T00:48:50;96085.78;;;5.08;84.91
9525;BME280;15940;48.734;9.112;2023-03-13T00:51:19;96086.78;;;5.11;85.03
9525;BME280;15940;48.734;9.112;2023-03-13T00:53:48;96086.63;;;5.14;85.09
9525;BME280;15940;48.734;9.112;2023-03-13T00:56:16;96081.34;;;5.20;84.76
9525;BME280;15940;48.734;9.112;2023-03-13T00:58:46;96081.97;;;5.30;84.62
9525;BME280;15940;48.734;9.112;2023-03-13T01:01:16;96078.41;;;5.33;84.19
9525;BME280;15940;48.734;9.112;2023-03-13T01:03:46;96069.94;;;5.40;84.37
9525;BME280;15940;48.734;9.112;2023-03-13T01:06:17;96065.16;;;5.44;83.66
9525;BME280;15940;48.734;9.112;2023-03-13T01:08:46;96056.25;;;5.53;83.81
9525;BME280;15940;48.734;9.112;2023-03-13T01:11:15;96049.69;;;5.54;83.59
9525;BME280;15940;48.734;9.112;2023-03-13T01:13:43;96040.78;;;5.62;83.33
9525;BME280;15940;48.734;9.112;2023-03-13T01:16:12;96047.44;;;5.67;83.23
9525;BME280;15940;48.734;9.112;2023-03-13T01:18:41;96031.88;;;5.71;83.05
9525;BME280;15940;48.734;9.112;2023-03-13T01:21:09;96035.84;;;5.76;82.93
9525;BME280;15940;48.734;9.112;2023-03-13T01:23:36;96040.81;;;5.83;82.90
9525;BME280;15940;48.734;9.112;2023-03-13T01:26:07;96026.19;;;5.98;81.90
9525;BME280;15940;48.734;9.112;2023-03-13T01:28:35;96021.69;;;6.10;81.19
9525;BME280;15940;48.734;9.112;2023-03-13T01:31:11;96008.13;;;6.19;80.98
9525;BME280;15940;48.734;9.112;2023-03-13T01:33:38;96017.53;;;6.29;80.65
9525;BME280;15940;48.734;9.112;2023-03-13T01:36:06;96015.44;;;6.39;80.10
9525;BME280;15940;48.734;9.112;2023-03-13T01:38:33;96008.91;;;6.46;79.70
9525;BME280;15940;48.734;9.112;2023-03-13T01:41:01;96005.81;;;6.53;79.04
9525;BME280;15940;48.734;9.112;2023-03-13T01:43:32;95989.66;;;6.53;79.12
9525;BME280;15940;48.734;9.112;2023-03-13T01:46:04;95990.25;;;6.63;78.63
9525;BME280;15940;48.734;9.112;2023-03-13T01:48:44;95987.63;;;6.68;78.58
9525;BME280;15940;48.734;9.112;2023-03-13T01:51:19;95987.47;;;6.77;77.86
9525;BME280;15940;48.734;9.112;2023-03-13T01:53:53;95984.56;;;6.81;77.94
9525;BME280;15940;48.734;9.112;2023-03-13T01:56:27;95971.84;;;6.81;78.12
9525;BME280;15940;48.734;9.112;2023-03-13T01:58:58;95966.00;;;6.83;77.72
9525;BME280;15940;48.734;9.112;2023-03-13T02:01:26;95961.63;;;6.85;77.13
9525;BME280;15940;48.734;9.112;2023-03-13T02:03:53;95950.13;;;6.85;76.92
9525;BME280;15940;48.734;9.112;2023-03-13T02:06:22;95953.31;;;6.89;76.84
9525;BME280;15940;48.734;9.112;2023-03-13T02:08:53;95945.50;;;6.91;76.81
9525;BME280;15940;48.734;9.112;2023-03-13T02:11:29;95943.88;;;6.99;76.67
9525;BME280;15940;48.734;9.112;2023-03-13T02:13:59;95943.22;;;7.10;76.03
9525;BME280;15940;48.734;9.112;2023-03-13T02:16:31;95945.75;;;7.19;75.51
9525;BME280;15940;48.734;9.112;2023-03-13T02:18:58;95946.28;;;7.23;75.78
9525;BME280;15940;48.734;9.112;2023-03-13T02:21:37;95947.75;;;7.24;75.38
9525;BME280;15940;48.734;9.112;2023-03-13T02:24:15;95941.88;;;7.26;75.01
9525;BME280;15940;48.734;9.112;2023-03-13T02:26:48;95943.16;;;7.30;74.98
9525;BME280;15940;48.734;9.112;2023-03-13T02:29:15;95935.06;;;7.30;75.15
9525;BME280;15940;48.734;9.112;2023-03-13T02:31:45;95948.06;;;7.37;74.88
9525;BME280;15940;48.734;9.112;2023-03-13T02:34:14;95933.13;;;7.36;75.08
9525;BME280;15940;48.734;9.112;2023-03-13T02:36:45;95922.09;;;7.34;75.10
9525;BME280;15940;48.734;9.112;2023-03-13T02:39:16;95919.19;;;7.38;75.28
9525;BME280;15940;48.734;9.112;2023-03-13T02:41:46;95913.84;;;7.43;75.12
9525;BME280;15940;48.734;9.112;2023-03-13T02:44:14;95910.16;;;7.47;75.08
9525;BME280;15940;48.734;9.112;2023-03-13T02:46:46;95902.13;;;7.52;74.91
9525;BME280;15940;48.734;9.112;2023-03-13T02:49:24;95892.59;;;7.57;74.75
9525;BME280;15940;48.734;9.112;2023-03-13T02:51:53;95891.66;;;7.60;74.94
9525;BME280;15940;48.734;9.112;2023-03-13T02:54:23;95871.31;;;7.59;75.08
9525;BME280;15940;48.734;9.112;2023-03-13T02:56:55;95879.91;;;7.63;75.19
9525;BME280;15940;48.734;9.112;2023-03-13T02:59:25;95882.63;;;7.68;75.22
9525;BME280;15940;48.734;9.112;2023-03-13T03:01:52;95878.97;;;7.71;75.24
9525;BME280;15940;48.734;9.112;2023-03-13T03:04:20;95879.19;;;7.68;75.86
9525;BME280;15940;48.734;9.112;2023-03-13T03:06:48;95867.44;;;7.71;75.73
9525;BME280;15940;48.734;9.112;2023-03-13T03:09:15;95865.97;;;7.70;75.86
9525;BME280;15940;48.734;9.112;2023-03-13T03:11:42;95853.72;;;7.74;75.88
9525;BME280;15940;48.734;9.112;2023-03-13T03:14:10;95854.47;;;7.75;76.25
9525;BME280;15940;48.734;9.112;2023-03-13T03:16:39;95854.97;;;7.79;76.57
9525;BME280;15940;48.734;9.112;2023-03-13T03:19:07;95847.13;;;7.81;76.71
9525;BME280;15940;48.734;9.112;2023-03-13T03:21:35;95840.78;;;7.84;76.84
9525;BME280;15940;48.734;9.112;2023-03-13T03:24:03;95853.03;;;7.85;77.16
9525;BME280;15940;48.734;9.112;2023-03-13T03:26:30;95854.00;;;7.82;77.13
9525;BME280;15940;48.734;9.112;2023-03-13T03:28:57;95854.78;;;7.88;77.15
9525;BME280;15940;48.734;9.112;2023-03-13T03:31:24;95846.91;;;7.85;77.57
9525;BME280;15940;48.734;9.112;2023-03-13T03:33:52;95850.59;;;7.87;77.67
9525;BME280;15940;48.734;9.112;2023-03-13T03:36:22;95839.09;;;7.87;78.16
9525;BME280;15940;48.734;9.112;2023-03-13T03:38:49;95832.69;;;7.84;78.10
9525;BME280;15940;48.734;9.112;2023-03-13T03:41:16;95827.81;;;7.88;77.82
9525;BME280;15940;48.734;9.112;2023-03-13T03:43:45;95836.66;;;8.00;77.75
9525;BME280;15940;48.734;9.112;2023-03-13T03:46:12;95831.28;;;8.06;77.85
9525;BME280;15940;48.734;9.112;2023-03-13T03:48:40;95817.31;;;8.13;77.69
9525;BME280;15940;48.734;9.112;2023-03-13T03:51:08;95825.19;;;8.27;77.60
9525;BME280;15940;48.734;9.112;2023-03-13T03:53:35;95834.09;;;8.45;77.40
9525;BME280;15940;48.734;9.112;2023-03-13T03:56:02;95820.34;;;8.54;77.54
9525;BME280;15940;48.734;9.112;2023-03-13T03:58:29;95827.47;;;8.63;78.13
9525;BME280;15940;48.734;9.112;2023-03-13T04:00:57;95827.94;;;8.67;78.67
9525;BME280;15940;48.734;9.112;2023-03-13T04:03:25;95833.81;;;9.04;79.03
9525;BME280;15940;48.734;9.112;2023-03-13T04:05:52;95835.03;;;9.20;78.71
9525;BME280;15940;48.734;9.112;2023-03-13T04:08:21;95840.66;;;9.33;78.62
9525;BME280;15940;48.734;9.112;2023-03-13T04:10:48;95825.41;;;9.41;77.42
9525;BME280;15940;48.734;9.112;2023-03-13T04:13:15;95817.69;;;9.62;78.59
9525;BME280;15940;48.734;9.112;2023-03-13T04:15:42;95819.66;;;9.67;77.48
9525;BME280;15940;48.734;9.112;2023-03-13T04:18:09;95825.31;;;9.64;78.70
9525;BME280;15940;48.734;9.112;2023-03-13T04:20:36;95821.31;;;9.82;77.77
9525;BME280;15940;48.734;9.112;2023-03-13T04:23:03;95823.78;;;9.80;76.66
9525;BME280;15940;48.734;9.112;2023-03-13T04:25:31;95808.72;;;9.90;77.94
9525;BME280;15940;48.734;9.112;2023-03-13T04:27:58;95812.41;;;9.92;78.03
9525;BME280;15940;48.734;9.112;2023-03-13T04:30:25;95812.69;;;9.89;78.64
9525;BME280;15940;48.734;9.112;2023-03-13T04:32:52;95812.41;;;9.92;78.70
9525;BME280;15940;48.734;9.112;2023-03-13T04:35:19;95809.47;;;9.85;78.50
9525;BME280;15940;48.734;9.112;2023-03-13T04:37:47;95801.63;;;9.87;78.42
9525;BME280;15940;48.734;9.112;2023-03-13T04:40:14;95804.34;;;9.81;77.52
9525;BME280;15940;48.734;9.112;2023-03-13T04:42:42;95813.69;;;9.80;79.18
9525;BME280;15940;48.734;9.112;2023-03-13T04:45:11;95799.94;;;9.78;78.48
9525;BME280;15940;48.734;9.112;2023-03-13T04:47:38;95791.78;;;9.84;79.33
9525;BME280;15940;48.734;9.112;2023-03-13T04:50:06;95800.63;;;9.84;78.51
9525;BME280;15940;48.734;9.112;2023-03-13T04:52:33;95790.03;;;9.92;79.38
9525;BME280;15940;48.734;9.112;2023-03-13T04:55:00;95805.81;;;9.88;79.06
9525;BME280;15940;48.734;9.112;2023-03-13T04:57:26;95780.94;;;9.89;79.45
9525;BME280;15940;48.734;9.112;2023-03-13T04:59:55;95793.53;;;9.81;79.69
9525;BME280;15940;48.734;9.112;2023-03-13T05:02:22;95785.69;;;9.78;79.02
9525;BME280;15940;48.734;9.112;2023-03-13T05:04:49;95786.66;;;9.74;80.01
9525;BME280;15940;48.734;9.112;2023-03-13T05:07:16;95791.09;;;9.78;80.00
9525;BME280;15940;48.734;9.112;2023-03-13T05:09:42;95792.34;;;9.77;79.82
9525;BME280;15940;48.734;9.112;2023-03-13T05:12:09;95777.09;;;9.73;79.25
9525;BME280;15940;48.734;9.112;2023-03-13T05:14:36;95779.56;;;9.71;80.14
9525;BME280;15940;48.734;9.112;2023-03-13T05:17:04;95780.31;;;9.72;79.00
9525;BME280;15940;48.734;9.112;2023-03-13T05:19:31;95788.84;;;9.82;79.34
9525;BME280;15940;48.734;9.112;2023-03-13T05:21:58;95784.22;;;9.77;79.91
9525;BME280;15940;48.734;9.112;2023-03-13T05:24:25;95766.94;;;9.85;79.99
9525;BME280;15940;48.734;9.112;2023-03-13T05:26:52;95781.91;;;9.92;nan
9525;BME280;15940;48.734;9.112;2023-03-13T05:29:19;95780.44;;;9.91;79.40
9525;BME280;15940;48.734;9.112;2023-03-13T05:31:46;95792.28;;;9.88;79.59
9525;BME280;15940;48.734;9.112;2023-03-13T05:34:14;95774.09;;;9.83;79.40
9525;BME280;15940;48.734;9.112;2023-03-13T05:36:41;95768.38;;;9.92;79.34
9525;BME280;15940;48.734;9.112;2023-03-13T05:39:08;95766.91;;;9.91;79.58
9525;BME280;15940;48.734;9.112;2023-03-13T05:41:35;95774.00;;;9.99;78.80
9525;BME280;15940;48.734;9.112;2023-03-13T05:44:02;95776.91;;;10.07;78.71
9525;BME280;15940;48.734;9.112;2023-03-13T05:46:29;95778.34;;;10.14;78.38
9525;BME280;15940;48.734;9.112;2023-03-13T05:48:57;95776.38;;;10.14;78.49
9525;BME280;15940;48.734;9.112;2023-03-13T05:51:25;95765.56;;;10.14;78.85
9525;BME280;15940;48.734;9.112;2023-03-13T05:53:52;95751.28;;;10.14;79.03
9525;BME280;15940;48.734;9.112;2023-03-13T05:56:18;95754.53;;;10.07;78.92
9525;BME280;15940;48.734;9.112;2023-03-13T05:58:45;95755.78;;;10.06;79.09
9525;BME280;15940;48.734;9.112;2023-03-13T06:01:13;95754.53;;;10.07;78.95
9525;BME280;15940;48.734;9.112;2023-03-13T06:03:40;95754.78;;;10.03;78.54
9525;BME280;15940;48.734;9.112;2023-03-13T06:06:07;95759.22;;;10.06;77.96
9525;BME280;15940;48.734;9.112;2023-03-13T06:08:35;95756.75;;;10.08;78.81
9525;BME280;15940;48.734;9.112;2023-03-13T06:11:02;95760.63;;;10.13;78.13
9525;BME280;15940;48.734;9.112;2023-03-13T06:13:29;95770.47;;;10.16;78.75
9525;BME280;15940;48.734;9.112;2023-03-13T06:15:57;95772.38;;;10.26;78.64
9525;BME280;15940;48.734;9.112;2023-03-13T06:18:25;95774.31;;;10.32;77.29
9525;BME280;15940;48.734;9.112;2023-03-13T06:20:56;95769.31;;;10.41;78.00
9525;BME280;15940;48.734;9.112;2023-03-13T06:23:24;95788.50;;;10.43;77.43
9525;BME280;15940;48.734;9.112;2023-03-13T06:25:52;95791.66;;;10.47;77.92
9525;BME280;15940;48.734;9.112;2023-03-13T06:28:20;95791.38;;;10.51;77.77
9525;BME280;15940;48.734;9.112;2023-03-13T06:30:47;95778.09;;;10.53;78.10
9525;BME280;15940;48.734;9.112;2023-03-13T06:33:14;95795.34;;;10.50;77.73
9525;BME280;15940;48.734;9.112;2023-03-13T06:35:41;95784.28;;;10.48;76.84
9525;BME280;15940;48.734;9.112;2023-03-13T06:38:09;95781.47;;;10.59;78.13
9525;BME280;15940;48.734;9.112;2023-03-13T06:40:36;95772.38;;;10.62;78.12
9525;BME280;15940;48.734;9.112;2023-03-13T06:43:05;95767.19;;;10.64;77.95
9525;BME280;15940;48.734;9.112;2023-03-13T06:45:34;95751.34;;;10.74;77.79
9525;BME280;15940;48.734;9.112;2023-03-13T06:48:01;95762.38;;;10.76;77.79
9525;BME280;15940;48.734;9.112;2023-03-13T06:50:28;95758.94;;;10.75;76.79
9525;BME280;15940;48.734;9.112;2023-03-13T06:52:55;95769.00;;;10.80;77.39
9525;BME280;15940;48.734;9.112;2023-03-13T06:55:23;95767.28;;;10.77;76.71
9525;BME280;15940;48.734;9.112;2023-03-13T06:57:50;95770.28;;;10.74;77.82
9525;BME280;15940;48.734;9.112;2023-03-13T07:00:20;95787.59;;;10.65;77.94
9525;BME280;15940;48.734;9.112;2023-03-13T07:02:47;95775.47;;;10.72;78.22
9525;BME280;15940;48.734;9.112;2023-03-13T07:05:14;95792.69;;;10.74;78.43
9525;BME280;15940;48.734;9.112;2023-03-13T07:07:41;95800.31;;;10.76;78.38
9525;BME280;15940;48.734;9.112;2023-03-13T07:10:10;95796.22;;;10.64;78.39
9525;BME280;15940;48.734;9.112;2023-03-13T07:12:37;95806.56;;;10.65;78.83
9525;BME280;15940;48.734;9.112;2023-03-13T07:15:06;95802.31;;;10.70;79.08
9525;BME280;15940;48.734;9.112;2023-03-13T07:17:34;95808.03;;;10.66;78.71
9525;BME280;15940;48.734;9.112;2023-03-13T07:20:02;95799.25;;;10.54;78.54
9525;BME280;15940;48.734;9.112;2023-03-13T07:22:31;95799.72;;;10.58;79.30
9525;BME280;15940;48.734;9.112;2023-03-13T07:24:58;95798.63;;;10.73;79.42
9525;BME280;15940;48.734;9.112;2023-03-13T07:27:25;95794.94;;;10.70;78.95
9525;BME280;15940;48.734;9.112;2023-03-13T07:29:52;95785.06;;;10.73;79.32
9525;BME280;15940;48.734;9.112;2023-03-13T07:32:19;95784.78;;;10.76;79.47
9525;BME280;15940;48.734;9.112;2023-03-13T07:34:47;95776.66;;;10.76;78.71
9525;BME280;15940;48.734;9.112;2023-03-13T07:37:15;95768.09;;;10.72;79.37
9525;BME280;15940;48.734;9.112;2023-03-13T07:39:42;95770.50;;;10.76;79.59
9525;BME280;15940;48.734;9.112;2023-03-13T07:42:10;95765.81;;;10.76;79.46
9525;BME280;15940;48.734;9.112;2023-03-13T07:44:37;95770.69;;;10.83;79.28
9525;BME280;15940;48.734;9.112;2023-03-13T07:47:04;95766.97;;;10.86;79.13
9525;BME280;15940;48.734;9.112;2023-03-13T07:49:31;95757.56;;;10.93;78.84
9525;BME280;15940;48.734;9.112;2023-03-13T07:51:59;95741.00;;;10.97;78.57
9525;BME280;15940;48.734;9.112;2023-03-13T07:54:26;95748.56;;;11.04;78.55
9525;BME280;15940;48.734;9.112;2023-03-13T07:56:53;95735.47;;;11.08;78.41
9525;BME280;15940;48.734;9.112;2023-03-13T07:59:20;95747.50;;;11.12;78.41
9525;BME280;15940;48.734;9.112;2023-03-13T08:01:47;95740.31;;;11.15;77.61
9525;BME280;15940;48.734;9.112;2023-03-13T08:04:14;95743.72;;;11.21;77.81
9525;BME280;15940;48.734;9.112;2023-03-13T08:06:41;95737.13;;;11.35;77.25
9525;BME280;15940;48.734;9.112;2023-03-13T08:09:09;95732.59;;;11.43;76.81
9525;BME280;15940;48.734;9.112;2023-03-13T08:11:38;95727.28;;;11.57;76.39
9525;BME280;15940;48.734;9.112;2023-03-13T08:14:06;95720.59;;;11.58;76.40
9525;BME280;15940;48.734;9.112;2023-03-13T08:16:34;95697.81;;;11.66;76.13
9525;BME280;15940;48.734;9.112;2023-03-13T08:19:03;95683.28;;;11.83;74.93
9525;BME280;15940;48.734;9.112;2023-03-13T08:21:33;95696.59;;;11.99;75.10
9525;BME280;15940;48.734;9.112;2023-03-13T08:24:02;95691.38;;;12.01;74.09
9525;BME280;15940;48.734;9.112;2023-03-13T08:26:34;95701.47;;;12.20;74.21
9525;BME280;15940;48.734;9.112;2023-03-13T08:29:05;95703.78;;;12.29;74.05
9525;BME280;15940;48.734;9.112;2023-03-13T08:31:34;95712.81;;;12.37;73.60
9525;BME280;15940;48.734;9.112;2023-03-13T08:34:02;95724.09;;;12.41;73.30
9525;BME280;15940;48.734;9.112;2023-03-13T08:36:32;95734.44;;;12.43;72.75
9525;BME280;15940;48.734;9.112;2023-03-13T08:39:02;95715.00;;;12.39;73.08
9525;BME280;15940;48.734;9.112;2023-03-13T08:41:35;95715.59;;;12.32;73.19
9525;BME280;15940;48.734;9.112;2023-03-13T08:44:03;95715.53;;;12.37;73.03
9525;BME280;15940;48.734;9.112;2023-03-13T08:46:32;95719.69;;;12.38;73.18
9525;BME280;15940;48.734;9.112;2023-03-13T08:49:01;95714.06;;;12.36;72.90
9525;BME280;15940;48.734;9.112;2023-03-13T08:51:28;95722.84;;;12.42;72.42
9525;BME280;15940;48.734;9.112;2023-03-13T08:53:56;95722.84;;;12.42;71.49
9525;BME280;15940;48.734;9.112;2023-03-13T08:56:25;95717.75;;;12.52;72.46
9525;BME280;15940;48.734;9.112;2023-03-13T08:58:56;95719.56;;;12.63;72.43
9525;BME280;15940;48.734;9.112;2023-03-13T09:01:25;95721.22;;;12.52;72.20
9525;BME280;15940;48.734;9.112;2023-03-13T09:03:52;95729.38;;;12.66;72.48
9525;BME280;15940;48.734;9.112;2023-03-13T09:06:19;95720.09;;;12.74;71.58
9525;BME280;15940;48.734;9.112;2023-03-13T09:08:47;95718.63;;;12.73;71.67
9525;BME280;15940;48.734;9.112;2023-03-13T09:11:16;95721.88;;;12.72;71.53
9525;BME280;15940;48.734;9.112;2023-03-13T09:13:45;95731.97;;;12.58;71.72
9525;BME280;15940;48.734;9.112;2023-03-13T09:16:16;95726.00;;;12.59;71.24
9525;BME280;15940;48.734;9.112;2023-03-13T09:18:43;95730.84;;;12.67;71.50
9525;BME280;15940;48.734;9.112;2023-03-13T09:21:13;95713.28;;;12.68;70.43
9525;BME280;15940;48.734;9.112;2023-03-13T09:23:40;95726.97;;;12.75;71.17
9525;BME280;15940;48.734;9.112;2023-03-13T09:26:07;95713.84;;;12.93;70.82
9525;BME280;15940;48.734;9.112;2023-03-13T09:28:35;95711.84;;;13.06;70.77
9525;BME280;15940;48.734;9.112;2023-03-13T09:31:09;95716.78;;;13.08;70.47
9525;BME280;15940;48.734;9.112;2023-03-13T09:33:39;95713.53;;;13.23;70.27
9525;BME280;15940;48.734;9.112;2023-03-13T09:36:07;95710.16;;;13.43;69.20
9525;BME280;15940;48.734;9.112;2023-03-13T09:38:35;95720.41;;;13.50;69.14
9525;BME280;15940;48.734;9.112;2023-03-13T09:41:10;95727.94;;;13.57;68.92
9525;BME280;15940;48.734;9.112;2023-03-13T09:43:46;95730.31;;;13.74;68.12
9525;BME280;15940;48.734;9.112;2023-03-13T09:46:17;95727.75;;;13.89;67.69
9525;BME280;15940;48.734;9.112;2023-03-13T09:48:53;95716.91;;;14.31;66.81
9525;BME280;15940;48.734;9.112;2023-03-13T09:51:26;95723.69;;;14.58;65.75
9525;BME280;15940;48.734;9.112;2023-03-13T09:53:58;95733.03;;;14.92;65.26
9525;BME280;15940;48.734;9.112;2023-03-13T09:56:33;95724.78;;;14.84;63.58
9525;BME280;15940;48.734;9.112;2023-03-13T09:59:12;95719.38;;;14.92;62.87
9525;BME280;15940;48.734;9.112;2023-03-13T10:01:41;95714.91;;;15.02;63.46
9525;BME280;15940;48.734;9.112;2023-03-13T10:04:26;95716.53;;;15.33;63.01
9525;BME280;15940;48.734;9.112;2023-03-13T10:06:54;95703.16;;;15.51;61.53
9525;BME280;15940;48.734;9.112;2023-03-13T10:09:27;95710.59;;;15.86;61.61
9525;BME280;15940;48.734;9.112;2023-03-13T10:12:03;95696.09;;;16.22;59.41
9525;BME280;15940;48.734;9.112;2023-03-13T10:14:42;95691.38;;;16.61;58.00
9525;BME280;15940;48.734;9.112;2023-03-13T10:17:19;95689.34;;;16.76;57.69
9525;BME280;15940;48.734;9.112;2023-03-13T10:19:55;95679.69;;;16.22;58.95
9525;BME280;15940;48.734;9.112;2023-03-13T10:22:26;95672.91;;;16.00;59.12
9525;BME280;15940;48.734;9.112;2023-03-13T10:27:18;95675.09;;;15.86;59.33
9525;BME280;15940;48.734;9.112;2023-03-13T10:29:45;95686.59;;;16.15;58.66
9525;BME280;15940;48.734;9.112;2023-03-13T10:32:15;95677.31;;;16.18;59.10
9525;BME280;15940;48.734;9.112;2023-03-13T10:34:54;95676.06;;;16.42;58.42
9525;BME280;15940;48.734;9.112;2023-03-13T10:37:25;95674.75;;;16.28;58.87
9525;BME280;15940;48.734;9.112;2023-03-13T10:39:52;95673.84;;;16.10;58.92
9525;BME280;15940;48.734;9.112;2023-03-13T10:42:27;95658.69;;;15.86;59.38
9525;BME280;15940;48.734;9.112;2023-03-13T10:44:58;95673.47;;;15.98;58.99
9525;BME280;15940;48.734;9.112;2023-03-13T10:47:26;95662.38;;;16.04;59.44
9525;BME280;15940;48.734;9.112;2023-03-13T10:49:58;95662.00;;;16.15;58.60
9525;BME280;15940;48.734;9.112;2023-03-13T10:52:31;95651.59;;;15.91;58.81
9525;BME280;15940;48.734;9.112;2023-03-13T10:55:03;95642.16;;;15.40;59.88
9525;BME280;15940;48.734;9.112;2023-03-13T10:57:34;95655.38;;;15.65;60.63
9525;BME280;15940;48.734;9.112;2023-03-13T11:00:06;95644.47;;;15.73;60.12
9525;BME280;15940;48.734;9.112;2023-03-13T11:02:49;95640.28;;;15.64;60.22
9525;BME280;15940;48.734;9.112;2023-03-13T11:05:37;95640.94;;;15.57;61.26
9525;BME280;15940;48.734;9.112;2023-03-13T11:08:18;95637.41;;;15.85;60.09
9525;BME280;15940;48.734;9.112;2023-03-13T11:10:53;95647.78;;;16.09;60.01
9525;BME280;15940;48.734;9.112;2023-03-13T11:13:33;95645.09;;;16.40;58.71
9525;BME280;15940;48.734;9.112;2023-03-13T11:16:18;95634.69;;;16.61;58.31
9525;BME280;15940;48.734;9.112;2023-03-13T11:22:06;95634.66;;;16.76;56.74
9525;BME280;15940;48.734;9.112;2023-03-13T11:24:43;95623.75;;;16.53;57.78
9525;BME280;15940;48.734;9.112;2023-03-13T11:27:21;95616.63;;;16.66;58.31
9525;BME280;15940;48.734;9.112;2023-03-13T11:30:13;95599.31;;;16.71;57.15
9525;BME280;15940;48.734;9.112;2023-03-13T11:32:44;95588.06;;;16.21;58.42
9525;BME280;15940;48.734;9.112;2023-03-13T11:35:29;95586.16;;;16.84;56.59
9525;BME280;15940;48.734;9.112;2023-03-13T11:38:04;95577.22;;;17.24;55.70
9525;BME280;15940;48.734;9.112;2023-03-13T11:40:39;95569.66;;;17.48;55.87
9525;BME280;15940;48.734;9.112;2023-03-13T11:43:26;95574.63;;;17.66;54.99
9525;BME280;15940;48.734;9.112;2023-03-13T11:46:32;95557.41;;;17.49;54.78
9525;BME280;15940;48.734;9.112;2023-03-13T11:49:45;95544.09;;;17.12;55.82
9525;BME280;15940;48.734;9.112;2023-03-13T11:52:37;95527.22;;;17.31;56.05
9525;BME280;15940;48.734;9.112;2023-03-13T11:55:24;95545.81;;;17.65;55.35
9525;BME280;15940;48.734;9.112;2023-03-13T11:58:04;95518.66;;;17.85;55.56
9525;BME280;15940;48.734;9.112;2023-03-13T12:00:38;95523.31;;;18.17;53.91
9525;BME280;15940;48.734;9.112;2023-03-13T12:03:15;95503.09;;;18.47;53.71
9525;BME280;15940;48.734;9.112;2023-03-13T12:05:50;95498.59;;;18.42;51.27
9525;BME280;15940;48.734;9.112;2023-03-13T12:08:24;95501.41;;;18.34;52.65
9525;BME280;15940;48.734;9.112;2023-03-13T12:11:03;95497.28;;;18.60;52.28
9525;BME280;15940;48.734;9.112;2023-03-13T12:13:37;95495.16;;;18.86;50.49
9525;BME280;15940;48.734;9.112;2023-03-13T12:16:09;95474.22;;;18.80;50.90
9525;BME280;15940;48.734;9.112;2023-03-13T12:18:40;95475.22;;;18.85;50.69
9525;BME280;15940;48.734;9.112;2023-03-13T12:21:17;95453.84;;;18.83;51.11
9525;BME280;15940;48.734;9.112;2023-03-13T12:23:51;95454.53;;;18.74;51.90
9525;BME280;15940;48.734;9.112;2023-03-13T12:26:21;95452.94;;;18.98;49.99
9525;BME280;15940;48.734;9.112;2023-03-13T12:29:02;95449.88;;;18.50;51.01
9525;BME280;15940;48.734;9.112;2023-03-13T12:31:35;95434.22;;;18.77;50.69
9525;BME280;15940;48.734;9.112;2023-03-13T12:34:14;95435.03;;;18.70;51.54
9525;BME280;15940;48.734;9.112;2023-03-13T12:36:50;95408.09;;;18.59;50.94
9525;BME280;15940;48.734;9.112;2023-03-13T12:39:26;95398.34;;;18.48;50.72
9525;BME280;15940;48.734;9.112;2023-03-13T12:42:09;95383.34;;;18.67;51.68
9525;BME280;15940;48.734;9.112;2023-03-13T12:44:42;95391.19;;;18.80;50.67
9525;BME280;15940;48.734;9.112;2023-03-13T12:47:15;95371.91;;;18.97;50.55
9525;BME280;15940;48.734;9.112;2023-03-13T12:50:18;95364.63;;;19.19;50.09
9525;BME280;15940;48.734;9.112;2023-03-13T12:56:33;95356.38;;;19.65;48.24
9525;BME280;15940;48.734;9.112;2023-03-13T12:59:07;95345.25;;;19.83;48.26
9525;BME280;15940;48.734;9.112;2023-03-13T13:01:40;95335.56;;;19.82;47.64
9525;BME280;15940;48.734;9.112;2023-03-13T13:04:12;95329.09;;;19.31;48.42
9525;BME280;15940;48.734;9.112;2023-03-13T13:06:55;95332.38;;;19.85;48.27
9525;BME280;15940;48.734;9.112;2023-03-13T13:09:28;95319.09;;;20.01;47.11
9525;BME280;15940;48.734;9.112;2023-03-13T13:11:59;95322.81;;;20.06;46.02
9525;BME280;15940;48.734;9.112;2023-03-13T13:14:58;95314.69;;;19.50;47.93
9525;BME280;15940;48.734;9.112;2023-03-13T13:17:48;95305.63;;;19.57;47.59
9525;BME280;15940;48.734;9.112;2023-03-13T13:20:39;95287.94;;;19.50;48.31
9525;BME280;15940;48.734;9.112;2023-03-13T13:23:29;95306.78;;;19.63;47.61
9525;BME280;15940;48.734;9.112;2023-03-13T13:26:48;95291.97;;;19.39;48.54
9525;BME280;15940;48.734;9.112;2023-03-13T13:29:55;95295.47;;;19.50;47.71
9525;BME280;15940;48.734;9.112;2023-03-13T13:32:38;95285.75;;;19.29;48.04
9525;BME280;15940;48.734;9.112;2023-03-13T13:35:28;95267.56;;;19.15;47.64
9525;BME280;15940;48.734;9.112;2023-03-13T13:38:29;95276.16;;;19.01;47.76
9525;BME280;15940;48.734;9.112;2023-03-13T13:41:20;95262.53;;;18.84;47.91
9525;BME280;15940;48.734;9.112;2023-03-13T13:43:50;95242.00;;;18.75;48.47
9525;BME280;15940;48.734;9.112;2023-03-13T13:46:43;95239.13;;;18.73;48.38